createdAt,value
2022-08-27T00:00:37.163Z,98302.31
2022-08-27T00:01:39.739Z,98302.31
2022-08-27T00:02:43.210Z,98286.56
2022-08-27T00:03:46.106Z,98295.84
2022-08-27T00:04:48.065Z,98304.69
2022-08-27T00:05:49.985Z,98297.47
2022-08-27T00:06:51.896Z,98296.53
2022-08-27T00:07:55.694Z,98299.69
2022-08-27T00:08:58.501Z,98292.81
2022-08-27T00:10:00.305Z,98307.56
2022-08-27T00:11:02.379Z,98308.66
2022-08-27T00:12:05.780Z,98291.63
2022-08-27T00:13:07.769Z,98299.69
2022-08-27T00:14:09.545Z,98304.66
2022-08-27T00:15:12.465Z,98303.34
2022-08-27T00:16:20.855Z,98305.25
2022-08-27T00:17:22.700Z,98299.34
2022-08-27T00:18:24.556Z,98305.81
2022-08-27T00:19:26.488Z,98291.97
2022-08-27T00:20:28.614Z,98309.81
2022-08-27T00:21:30.690Z,98309.00
2022-08-27T00:22:32.589Z,98315.47
2022-08-27T00:23:36.296Z,98323.25
2022-08-27T00:24:48.708Z,98316.88
2022-08-27T00:25:50.970Z,98313.13
2022-08-27T00:26:54.005Z,98319.53
2022-08-27T00:27:55.803Z,98321.91
2022-08-27T00:28:57.791Z,98310.31
2022-08-27T00:30:00.258Z,98323.94
2022-08-27T00:31:02.591Z,98318.22
2022-08-27T00:32:04.619Z,98318.66
2022-08-27T00:33:06.438Z,98318.66
2022-08-27T00:34:08.502Z,98312.41
2022-08-27T00:35:16.291Z,98300.81
2022-08-27T00:36:18.355Z,98319.38
2022-08-27T00:37:20.517Z,98325.78
2022-08-27T00:38:23.544Z,98319.91
2022-08-27T00:39:25.352Z,98321.97
2022-08-27T00:40:27.662Z,98320.59
2022-08-27T00:41:29.471Z,98303.63
2022-08-27T00:42:31.281Z,98325.19
2022-08-27T00:43:57.592Z,98320.75
2022-08-27T00:44:59.917Z,98314.50
2022-08-27T00:46:10.655Z,98324.13
2022-08-27T00:47:17.052Z,98325.41
2022-08-27T00:48:21.926Z,98324.03
2022-08-27T00:49:46.017Z,98322.13
2022-08-27T00:50:52.695Z,98319.53
2022-08-27T00:52:06.468Z,98314.22
2022-08-27T00:53:12.578Z,98323.75
2022-08-27T00:54:18.686Z,98316.25
2022-08-27T00:55:28.747Z,98326.94
2022-08-27T00:56:36.066Z,98310.97
2022-08-27T00:57:40.869Z,98319.53
2022-08-27T00:58:46.128Z,98323.81
2022-08-27T00:59:48.596Z,98325.41
2022-08-27T01:00:50.662Z,98320.53
2022-08-27T01:02:11.171Z,98314.75
2022-08-27T01:03:14.084Z,98323.03
2022-08-27T01:04:16.081Z,98322.72
2022-08-27T01:05:22.214Z,98321.44
2022-08-27T01:06:29.745Z,98304.91
2022-08-27T01:07:36.498Z,98318.50
2022-08-27T01:08:42.560Z,98298.47
2022-08-27T01:09:46.766Z,98319.09
2022-08-27T01:10:54.064Z,98317.47
2022-08-27T01:11:58.178Z,98313.59
2022-08-27T01:13:00.560Z,98315.06
2022-08-27T01:14:04.998Z,98322.03
2022-08-27T01:15:12.045Z,98317.38
2022-08-27T01:16:21.007Z,98316.00
2022-08-27T01:17:25.212Z,98311.00
2022-08-27T01:18:28.936Z,98313.09
2022-08-27T01:19:36.285Z,98321.47
2022-08-27T01:20:51.748Z,98324.41
2022-08-27T01:22:21.729Z,98302.56
2022-08-27T01:23:48.728Z,98313.03
2022-08-27T01:24:52.999Z,98323.69
2022-08-27T01:25:55.141Z,98305.97
2022-08-27T01:26:59.259Z,98319.84
2022-08-27T01:28:03.486Z,98300.59
2022-08-27T01:29:05.542Z,98284.06
2022-08-27T01:30:10.297Z,98316.00
2022-08-27T01:31:13.522Z,98306.88
2022-08-27T01:32:24.354Z,98309.84
2022-08-27T01:33:26.164Z,98308.75
2022-08-27T01:34:28.015Z,98312.19
2022-08-27T01:35:29.972Z,98311.88
2022-08-27T01:36:32.954Z,98305.72
2022-08-27T01:37:35.402Z,98308.34
2022-08-27T01:38:37.164Z,98305.38
2022-08-27T01:39:40.790Z,98312.34
2022-08-27T01:40:42.849Z,98307.78
2022-08-27T01:41:46.971Z,98314.22
2022-08-27T01:42:56.853Z,98307.25
2022-08-27T01:43:58.658Z,98318.00
2022-08-27T01:45:10.995Z,98310.50
2022-08-27T01:46:13.041Z,98312.38
2022-08-27T01:47:16.031Z,98319.94
2022-08-27T01:48:22.034Z,98316.94
2022-08-27T01:49:23.805Z,98316.13
2022-08-27T01:50:32.166Z,98320.22
2022-08-27T01:51:34.758Z,98322.03
2022-08-27T01:52:37.154Z,98307.16
2022-08-27T01:53:38.948Z,98310.34
2022-08-27T01:54:40.984Z,98312.19
2022-08-27T01:55:48.139Z,98318.63
2022-08-27T01:56:50.291Z,98316.66
2022-08-27T01:57:53.423Z,98319.84
2022-08-27T01:58:55.220Z,98305.97
2022-08-27T01:59:58.241Z,98309.75
2022-08-27T02:01:10.609Z,98316.13
2022-08-27T02:02:16.767Z,98320.41
2022-08-27T02:03:19.341Z,98316.13
2022-08-27T02:04:21.764Z,98308.66
2022-08-27T02:05:26.285Z,98319.34
2022-08-27T02:06:28.079Z,98320.94
2022-08-27T02:07:29.858Z,98317.75
2022-08-27T02:08:32.384Z,98318.03
2022-08-27T02:09:34.221Z,98323.38
2022-08-27T02:10:38.854Z,98305.53
2022-08-27T02:11:45.092Z,98310.09
2022-08-27T02:12:47.248Z,98324.19
2022-08-27T02:13:49.381Z,98306.63
2022-08-27T02:14:52.045Z,98322.44
2022-08-27T02:15:54.341Z,98326.22
2022-08-27T02:16:56.644Z,98319.47
2022-08-27T02:17:58.498Z,98319.53
2022-08-27T02:19:00.567Z,98318.00
2022-08-27T02:20:02.685Z,98311.09
2022-08-27T02:21:05.317Z,98309.53
2022-08-27T02:22:07.344Z,98318.09
2022-08-27T02:23:09.324Z,98306.94
2022-08-27T02:24:11.342Z,98310.56
2022-08-27T02:25:14.156Z,98316.97
2022-08-27T02:26:15.999Z,98310.00
2022-08-27T02:27:18.603Z,98313.25
2022-08-27T02:28:20.530Z,98308.97
2022-08-27T02:29:23.413Z,98305.78
2022-08-27T02:30:25.447Z,98313.53
2022-08-27T02:31:27.394Z,98312.97
2022-08-27T02:32:31.791Z,98310.28
2022-08-27T02:33:34.190Z,98302.94
2022-08-27T02:34:35.982Z,98311.13
2022-08-27T02:35:44.066Z,98310.84
2022-08-27T02:36:46.480Z,98310.28
2022-08-27T02:37:48.976Z,98299.97
2022-08-27T02:38:51.367Z,98308.16
2022-08-27T02:39:53.417Z,98312.22
2022-08-27T02:40:55.407Z,98318.69
2022-08-27T02:41:57.202Z,98300.00
2022-08-27T02:42:59.046Z,98305.66
2022-08-27T02:44:01.514Z,98313.09
2022-08-27T02:45:03.462Z,98295.00
2022-08-27T02:46:05.509Z,98318.19
2022-08-27T02:47:07.378Z,98316.28
2022-08-27T02:48:09.358Z,98309.06
2022-08-27T02:49:11.343Z,98311.22
2022-08-27T02:50:14.845Z,98313.34
2022-08-27T02:51:16.684Z,98299.72
2022-08-27T02:52:25.030Z,98314.91
2022-08-27T02:53:27.405Z,98308.00
2022-08-27T02:54:30.294Z,98302.22
2022-08-27T02:55:33.412Z,98308.00
2022-08-27T02:56:35.575Z,98315.03
2022-08-27T02:57:37.434Z,98299.53
2022-08-27T02:58:41.075Z,98306.97
2022-08-27T02:59:42.881Z,98311.53
2022-08-27T03:00:45.319Z,98311.81
2022-08-27T03:01:47.800Z,98263.63
2022-08-27T03:02:50.062Z,98308.97
2022-08-27T03:03:52.695Z,98292.19
2022-08-27T03:04:54.512Z,98313.53
2022-08-27T03:05:58.325Z,98312.22
2022-08-27T03:07:00.620Z,98309.53
2022-08-27T03:08:03.781Z,98298.34
2022-08-27T03:09:05.956Z,98312.75
2022-08-27T03:10:10.058Z,98306.56
2022-08-27T03:11:12.871Z,98311.94
2022-08-27T03:12:16.183Z,98311.94
2022-08-27T03:13:18.936Z,98315.69
2022-08-27T03:14:20.834Z,98294.91
2022-08-27T03:15:22.758Z,98311.41
2022-08-27T03:16:24.973Z,98269.13
2022-08-27T03:17:45.543Z,98313.63
2022-08-27T03:18:47.390Z,98309.34
2022-08-27T03:19:50.875Z,98310.13
2022-08-27T03:20:55.910Z,98317.88
2022-08-27T03:21:57.678Z,98311.50
2022-08-27T03:23:00.663Z,98306.66
2022-08-27T03:24:11.402Z,98290.44
2022-08-27T03:25:14.060Z,98311.84
2022-08-27T03:26:17.006Z,98309.50
2022-08-27T03:27:18.802Z,98306.34
2022-08-27T03:28:23.877Z,98302.63
2022-08-27T03:29:25.765Z,98299.16
2022-08-27T03:30:27.857Z,98289.34
2022-08-27T03:31:29.683Z,98310.06
2022-08-27T03:32:31.633Z,98305.56
2022-08-27T03:33:40.585Z,98310.06
2022-08-27T03:34:42.615Z,98314.84
2022-08-27T03:35:45.689Z,98308.97
2022-08-27T03:36:50.466Z,98309.50
2022-08-27T03:37:52.304Z,98309.28
2022-08-27T03:38:54.502Z,98319.66
2022-08-27T03:39:56.329Z,98317.25
2022-08-27T03:40:58.140Z,98310.56
2022-08-27T03:41:59.921Z,98314.84
2022-08-27T03:43:01.855Z,98311.88
2022-08-27T03:44:04.419Z,98318.56
2022-08-27T03:45:07.916Z,98317.50
2022-08-27T03:46:10.443Z,98320.22
2022-08-27T03:47:12.250Z,98324.03
2022-08-27T03:48:14.904Z,98319.00
2022-08-27T03:49:20.696Z,98321.13
2022-08-27T03:50:23.230Z,98324.06
2022-08-27T03:51:25.419Z,98316.66
2022-08-27T03:52:28.820Z,98336.13
2022-08-27T03:53:30.734Z,98331.03
2022-08-27T03:54:36.263Z,98328.34
2022-08-27T03:55:38.045Z,98336.84
2022-08-27T03:56:41.770Z,98335.22
2022-08-27T03:57:43.603Z,98314.97
2022-08-27T03:58:45.402Z,98337.63
2022-08-27T03:59:47.323Z,98331.97
2022-08-27T04:00:49.165Z,98331.97
2022-08-27T04:01:50.954Z,98329.81
2022-08-27T04:02:53.641Z,98344.22
2022-08-27T04:03:55.471Z,98347.44
2022-08-27T04:04:58.019Z,98347.97
2022-08-27T04:06:00.260Z,98341.56
2022-08-27T04:07:02.158Z,98349.59
2022-08-27T04:08:04.068Z,98356.53
2022-08-27T04:09:06.067Z,98359.22
2022-08-27T04:10:09.653Z,98343.41
2022-08-27T04:11:11.924Z,98352.50
2022-08-27T04:12:13.729Z,98343.44
2022-08-27T04:13:16.323Z,98357.00
2022-08-27T04:14:24.826Z,98359.94
2022-08-27T04:15:30.100Z,98360.97
2022-08-27T04:16:33.827Z,98356.13
2022-08-27T04:17:35.783Z,98347.31
2022-08-27T04:18:37.628Z,98352.66
2022-08-27T04:19:39.427Z,98331.59
2022-08-27T04:20:41.637Z,98326.50
2022-08-27T04:21:43.731Z,98336.34
2022-08-27T04:22:45.528Z,98352.06
2022-08-27T04:23:47.328Z,98354.19
2022-08-27T04:24:49.309Z,98351.72
2022-08-27T04:25:51.099Z,98349.56
2022-08-27T04:26:52.929Z,98355.13
2022-08-27T04:27:54.712Z,98335.34
2022-08-27T04:28:58.204Z,98350.75
2022-08-27T04:30:01.082Z,98355.78
2022-08-27T04:31:04.090Z,98361.59
2022-08-27T04:32:06.004Z,98361.25
2022-08-27T04:33:08.098Z,98363.88
2022-08-27T04:34:09.937Z,98357.91
2022-08-27T04:35:11.990Z,98360.56
2022-08-27T04:36:14.647Z,98369.75
2022-08-27T04:37:16.874Z,98358.66
2022-08-27T04:38:25.223Z,98367.53
2022-08-27T04:39:28.548Z,98362.78
2022-08-27T04:40:50.470Z,98370.69
2022-08-27T04:41:55.657Z,98367.50
2022-08-27T04:42:57.630Z,98361.97
2022-08-27T04:44:04.705Z,98360.72
2022-08-27T04:45:07.079Z,98364.53
2022-08-27T04:46:09.279Z,98365.66
2022-08-27T04:47:11.128Z,98358.41
2022-08-27T04:48:15.490Z,98371.88
2022-08-27T04:49:17.718Z,98361.78
2022-08-27T04:50:19.935Z,98361.31
2022-08-27T04:51:22.263Z,98352.78
2022-08-27T04:52:24.275Z,98372.50
2022-08-27T04:53:26.314Z,98369.78
2022-08-27T04:54:32.405Z,98376.91
2022-08-27T04:55:40.552Z,98357.97
2022-08-27T04:56:42.654Z,98378.66
2022-08-27T04:57:44.456Z,98373.22
2022-08-27T04:58:46.283Z,98382.88
2022-08-27T04:59:48.291Z,98381.72
2022-08-27T05:00:56.423Z,98384.03
2022-08-27T05:01:58.648Z,98367.50
2022-08-27T05:03:00.493Z,98377.16
2022-08-27T05:04:02.685Z,98375.13
2022-08-27T05:05:05.076Z,98382.31
2022-08-27T05:06:07.450Z,98362.59
2022-08-27T05:07:10.642Z,98392.75
2022-08-27T05:08:13.307Z,98370.00
2022-08-27T05:09:16.208Z,98389.44
2022-08-27T05:10:20.059Z,98386.94
2022-08-27T05:11:23.839Z,98374.84
2022-08-27T05:12:25.732Z,98379.19
2022-08-27T05:13:29.031Z,98381.72
2022-08-27T05:14:32.581Z,98383.00
2022-08-27T05:15:35.306Z,98384.56
2022-08-27T05:16:38.163Z,98384.38
2022-08-27T05:17:40.009Z,98377.06
2022-08-27T05:18:48.039Z,98381.03
2022-08-27T05:19:50.589Z,98391.41
2022-08-27T05:20:52.399Z,98388.69
2022-08-27T05:21:54.405Z,98384.19
2022-08-27T05:22:56.929Z,98392.31
2022-08-27T05:24:01.392Z,98386.31
2022-08-27T05:25:03.278Z,98399.00
2022-08-27T05:26:07.556Z,98396.63
2022-08-27T05:27:09.973Z,98385.19
2022-08-27T05:28:16.943Z,98397.28
2022-08-27T05:29:18.956Z,98386.47
2022-08-27T05:30:21.131Z,98396.97
2022-08-27T05:31:23.044Z,98392.19
2022-08-27T05:32:24.879Z,98393.50
2022-08-27T05:33:26.752Z,98400.81
2022-08-27T05:34:30.091Z,98393.31
2022-08-27T05:35:32.965Z,98403.03
2022-08-27T05:36:35.845Z,98395.06
2022-08-27T05:37:37.996Z,98386.31
2022-08-27T05:38:39.858Z,98402.06
2022-08-27T05:39:41.643Z,98386.28
2022-08-27T05:40:44.116Z,98402.03
2022-08-27T05:41:45.912Z,98339.81
2022-08-27T05:42:51.108Z,98402.31
2022-08-27T05:43:57.541Z,98413.44
2022-08-27T05:45:00.925Z,98409.00
2022-08-27T05:46:07.713Z,98411.84
2022-08-27T05:47:10.314Z,98411.22
2022-08-27T05:48:12.958Z,98417.84
2022-08-27T05:49:15.039Z,98408.47
2022-08-27T05:50:20.730Z,98389.78
2022-08-27T05:51:34.244Z,98414.47
2022-08-27T05:52:36.683Z,98415.63
2022-08-27T05:53:39.520Z,98395.88
2022-08-27T05:54:41.348Z,98390.63
2022-08-27T05:55:45.631Z,98408.56
2022-08-27T05:56:51.700Z,98412.00
2022-08-27T05:57:53.494Z,98404.22
2022-08-27T05:59:14.528Z,98411.03
2022-08-27T06:00:35.905Z,98409.13
2022-08-27T06:01:45.086Z,98393.41
2022-08-27T06:02:47.006Z,98404.47
2022-08-27T06:03:48.827Z,98394.94
2022-08-27T06:04:50.747Z,98408.03
2022-08-27T06:06:01.803Z,98401.66
2022-08-27T06:07:03.761Z,98403.41
2022-08-27T06:08:05.578Z,98407.97
2022-08-27T06:09:08.799Z,98406.19
2022-08-27T06:10:11.522Z,98406.97
2022-08-27T06:11:13.556Z,98400.59
2022-08-27T06:12:15.374Z,98407.63
2022-08-27T06:13:17.211Z,98394.63
2022-08-27T06:14:19.083Z,98407.34
2022-08-27T06:15:20.932Z,98389.47
2022-08-27T06:16:23.634Z,98406.63
2022-08-27T06:17:25.449Z,98414.72
2022-08-27T06:18:27.242Z,98409.59
2022-08-27T06:19:29.302Z,98395.25
2022-08-27T06:20:31.128Z,98411.69
2022-08-27T06:21:33.671Z,98399.47
2022-08-27T06:22:35.491Z,98396.28
2022-08-27T06:23:37.954Z,98408.75
2022-08-27T06:24:42.074Z,98409.41
2022-08-27T06:25:43.979Z,98413.25
2022-08-27T06:26:45.871Z,98410.88
2022-08-27T06:27:47.656Z,98411.91
2022-08-27T06:28:50.530Z,98401.50
2022-08-27T06:29:52.313Z,98411.34
2022-08-27T06:30:54.120Z,98417.84
2022-08-27T06:31:56.603Z,98408.38
2022-08-27T06:32:58.373Z,98406.53
2022-08-27T06:34:07.277Z,98406.53
2022-08-27T06:35:09.724Z,98413.06
2022-08-27T06:36:14.526Z,98412.00
2022-08-27T06:37:16.361Z,98410.78
2022-08-27T06:38:18.143Z,98421.34
2022-08-27T06:39:19.999Z,98421.97
2022-08-27T06:40:23.428Z,98407.16
2022-08-27T06:41:27.069Z,98418.31
2022-08-27T06:42:28.849Z,98424.19
2022-08-27T06:43:33.032Z,98407.63
2022-08-27T06:44:34.880Z,98410.47
2022-08-27T06:45:40.172Z,98418.47
2022-08-27T06:46:43.150Z,98419.91
2022-08-27T06:47:45.382Z,98400.59
2022-08-27T06:48:48.077Z,98416.69
2022-08-27T06:49:49.844Z,98418.59
2022-08-27T06:50:51.653Z,98419.72
2022-08-27T06:51:53.805Z,98412.41
2022-08-27T06:52:55.656Z,98412.81
2022-08-27T06:53:59.605Z,98411.81
2022-08-27T06:55:01.516Z,98420.97
2022-08-27T06:56:03.564Z,98417.19
2022-08-27T06:57:05.403Z,98416.88
2022-08-27T06:58:07.569Z,98422.94
2022-08-27T06:59:12.412Z,98417.69
2022-08-27T07:00:14.449Z,98414.00
2022-08-27T07:01:22.902Z,98394.22
2022-08-27T07:02:24.839Z,98408.53
2022-08-27T07:03:26.687Z,98418.88
2022-08-27T07:04:32.773Z,98423.63
2022-08-27T07:05:37.172Z,98417.81
2022-08-27T07:06:39.942Z,98408.41
2022-08-27T07:07:46.712Z,98411.75
2022-08-27T07:08:53.169Z,98408.25
2022-08-27T07:09:55.600Z,98409.38
2022-08-27T07:10:58.017Z,98414.34
2022-08-27T07:12:00.952Z,98402.84
2022-08-27T07:13:03.362Z,98410.72
2022-08-27T07:14:06.492Z,98414.47
2022-08-27T07:15:08.810Z,98413.03
2022-08-27T07:16:14.253Z,98416.25
2022-08-27T07:17:17.552Z,98406.97
2022-08-27T07:18:19.327Z,98417.75
2022-08-27T07:19:30.521Z,98414.34
2022-08-27T07:20:33.264Z,98408.53
2022-08-27T07:21:36.333Z,98420.00
2022-08-27T07:22:42.944Z,98421.28
2022-08-27T07:23:44.744Z,98415.47
2022-08-27T07:24:46.816Z,98410.38
2022-08-27T07:25:48.903Z,98421.88
2022-08-27T07:26:50.711Z,98425.78
2022-08-27T07:27:52.868Z,98425.41
2022-08-27T07:28:54.664Z,98411.63
2022-08-27T07:29:56.446Z,98416.31
2022-08-27T07:30:58.301Z,98422.22
2022-08-27T07:32:00.164Z,98412.00
2022-08-27T07:33:01.989Z,98416.72
2022-08-27T07:34:04.941Z,98421.84
2022-08-27T07:35:09.890Z,98415.56
2022-08-27T07:36:12.198Z,98417.94
2022-08-27T07:37:15.169Z,98423.81
2022-08-27T07:38:16.955Z,98414.75
2022-08-27T07:39:18.847Z,98416.72
2022-08-27T07:40:20.680Z,98415.50
2022-08-27T07:41:22.467Z,98423.34
2022-08-27T07:42:48.390Z,98420.19
2022-08-27T07:44:08.434Z,98426.00
2022-08-27T07:45:10.818Z,98420.81
2022-08-27T07:46:12.662Z,98406.63
2022-08-27T07:47:14.571Z,98418.78
2022-08-27T07:48:16.639Z,98404.97
2022-08-27T07:49:19.310Z,98414.44
2022-08-27T07:50:23.795Z,98421.59
2022-08-27T07:51:27.426Z,98418.81
2022-08-27T07:52:29.268Z,98418.41
2022-08-27T07:53:34.125Z,98417.50
2022-08-27T07:54:35.963Z,98414.28
2022-08-27T07:55:39.006Z,98418.53
2022-08-27T07:56:40.911Z,98410.53
2022-08-27T07:57:42.706Z,98414.00
2022-08-27T07:58:45.355Z,98413.59
2022-08-27T07:59:48.533Z,98414.69
2022-08-27T08:00:50.311Z,98415.72
2022-08-27T08:01:52.509Z,98403.50
2022-08-27T08:02:54.556Z,98417.59
2022-08-27T08:03:56.831Z,98416.06
2022-08-27T08:04:58.755Z,98423.13
2022-08-27T08:06:10.447Z,98416.31
2022-08-27T08:07:12.513Z,98406.59
2022-08-27T08:08:14.485Z,98410.81
2022-08-27T08:09:16.384Z,98400.50
2022-08-27T08:10:22.705Z,98422.63
2022-08-27T08:11:24.557Z,98412.97
2022-08-27T08:12:27.216Z,98414.72
2022-08-27T08:13:29.096Z,98420.88
2022-08-27T08:14:32.398Z,98417.09
2022-08-27T08:15:35.042Z,98419.72
2022-08-27T08:16:36.963Z,98410.22
2022-08-27T08:17:38.913Z,98411.66
2022-08-27T08:18:40.937Z,98419.31
2022-08-27T08:19:53.490Z,98415.00
2022-08-27T08:21:11.456Z,98419.31
2022-08-27T08:22:13.244Z,98414.75
2022-08-27T08:23:15.118Z,98421.41
2022-08-27T08:24:18.495Z,98417.97
2022-08-27T08:25:21.321Z,98410.47
2022-08-27T08:26:24.081Z,98404.59
2022-08-27T08:27:26.033Z,98408.66
2022-08-27T08:28:30.341Z,98419.09
2022-08-27T08:29:32.138Z,98410.38
2022-08-27T08:30:35.493Z,98399.56
2022-08-27T08:31:37.481Z,98416.13
2022-08-27T08:32:39.535Z,98412.34
2022-08-27T08:33:41.386Z,98408.75
2022-08-27T08:34:44.328Z,98411.88
2022-08-27T08:35:46.378Z,98405.44
2022-08-27T08:36:54.501Z,98405.84
2022-08-27T08:37:56.671Z,98409.69
2022-08-27T08:38:59.154Z,98422.03
2022-08-27T08:40:01.001Z,98409.56
2022-08-27T08:41:04.182Z,98397.66
2022-08-27T08:42:08.110Z,98410.41
2022-08-27T08:43:26.925Z,98409.69
2022-08-27T08:44:31.234Z,98404.66
2022-08-27T08:45:36.536Z,98420.03
2022-08-27T08:46:46.813Z,98411.22
2022-08-27T08:47:57.278Z,98400.97
2022-08-27T08:49:04.003Z,98402.94
2022-08-27T08:50:11.218Z,98405.44
2022-08-27T08:51:22.071Z,98405.56
2022-08-27T08:52:43.783Z,98408.38
2022-08-27T08:53:55.694Z,98399.09
2022-08-27T08:55:07.049Z,98405.50
2022-08-27T08:56:21.371Z,98403.16
2022-08-27T08:57:31.082Z,98409.78
2022-08-27T08:59:06.161Z,98413.28
2022-08-27T09:00:14.329Z,98371.38
2022-08-27T09:01:20.934Z,98387.06
2022-08-27T09:02:23.021Z,98397.81
2022-08-27T09:03:29.901Z,98400.44
2022-08-27T09:04:31.797Z,98397.41
2022-08-27T09:05:37.579Z,98391.66
2022-08-27T09:06:56.433Z,98386.31
2022-08-27T09:08:28.638Z,98402.13
2022-08-27T09:09:31.931Z,98405.63
2022-08-27T09:10:52.992Z,98397.94
2022-08-27T09:12:15.536Z,98399.56
2022-08-27T09:13:32.881Z,98392.53
2022-08-27T09:14:41.641Z,98394.50
2022-08-27T09:15:49.260Z,98399.22
2022-08-27T09:16:51.184Z,98401.06
2022-08-27T09:18:14.020Z,98401.09
2022-08-27T09:19:16.511Z,98397.78
2022-08-27T09:20:26.221Z,98395.31
2022-08-27T09:21:51.743Z,98403.22
2022-08-27T09:23:06.834Z,98394.56
2022-08-27T09:24:18.444Z,98382.91
2022-08-27T09:25:26.334Z,98398.38
2022-08-27T09:26:33.591Z,98387.09
2022-08-27T09:27:42.970Z,98389.25
2022-08-27T09:29:03.419Z,98394.09
2022-08-27T09:30:20.890Z,98388.94
2022-08-27T09:31:23.226Z,98398.47
2022-08-27T09:32:32.655Z,98398.53
2022-08-27T09:33:44.398Z,98383.59
2022-08-27T09:35:03.287Z,98399.25
2022-08-27T09:36:09.984Z,98393.59
2022-08-27T09:37:23.302Z,98383.69
2022-08-27T09:38:36.944Z,98392.53
2022-08-27T09:40:22.597Z,98392.63
2022-08-27T09:41:33.320Z,98385.94
2022-08-27T09:42:41.610Z,98391.38
2022-08-27T09:44:07.357Z,98395.84
2022-08-27T09:45:12.800Z,98366.16
2022-08-27T09:46:21.600Z,98391.25
2022-08-27T09:47:26.952Z,98389.69
2022-08-27T09:48:31.525Z,98382.16
2022-08-27T09:49:36.854Z,98388.16
2022-08-27T09:50:57.072Z,98390.56
2022-08-27T09:51:59.260Z,98385.78
2022-08-27T09:53:01.548Z,98387.91
2022-08-27T09:54:04.506Z,98375.47
2022-08-27T09:55:07.258Z,98374.25
2022-08-27T09:56:11.268Z,98384.09
2022-08-27T09:57:26.339Z,98384.94
2022-08-27T09:58:47.745Z,98383.88
2022-08-27T09:59:54.850Z,98383.09
2022-08-27T10:01:17.188Z,98374.44
2022-08-27T10:02:22.332Z,98382.03
2022-08-27T10:03:24.161Z,98379.31
2022-08-27T10:04:51.533Z,98377.16
2022-08-27T10:05:54.756Z,98382.28
2022-08-27T10:06:56.641Z,98367.84
2022-08-27T10:08:04.853Z,98370.50
2022-08-27T10:09:18.947Z,98375.16
2022-08-27T10:10:37.501Z,98358.59
2022-08-27T10:11:55.238Z,98376.56
2022-08-27T10:13:10.095Z,98366.56
2022-08-27T10:14:20.386Z,98376.00
2022-08-27T10:15:29.790Z,98369.31
2022-08-27T10:17:20.701Z,98377.81
2022-08-27T10:18:45.014Z,98364.09
2022-08-27T10:19:58.502Z,98365.88
2022-08-27T10:21:42.195Z,98376.94
2022-08-27T10:23:07.842Z,98385.09
2022-08-27T10:24:35.507Z,98373.88
2022-08-27T10:25:47.283Z,98381.00
2022-08-27T10:27:08.494Z,98381.38
2022-08-27T10:28:26.696Z,98375.69
2022-08-27T10:29:43.213Z,98384.63
2022-08-27T10:31:06.383Z,98373.50
2022-08-27T10:32:25.651Z,98379.16
2022-08-27T10:33:46.814Z,98377.03
2022-08-27T10:35:05.572Z,98372.56
2022-08-27T10:36:19.504Z,98375.47
2022-08-27T10:37:45.960Z,98371.81
2022-08-27T10:39:06.683Z,98374.59
2022-08-27T10:40:09.346Z,98370.09
2022-08-27T10:41:14.049Z,98379.47
2022-08-27T10:42:26.508Z,98383.44
2022-08-27T10:44:02.062Z,98370.22
2022-08-27T10:45:11.402Z,98369.66
2022-08-27T10:46:31.751Z,98373.88
2022-08-27T10:47:44.658Z,98373.56
2022-08-27T10:49:01.484Z,98377.88
2022-08-27T10:50:27.616Z,98375.09
2022-08-27T10:51:44.009Z,98372.22
2022-08-27T10:52:51.696Z,98373.59
2022-08-27T10:54:10.569Z,98343.88
2022-08-27T10:55:18.349Z,98370.44
2022-08-27T10:56:33.358Z,98375.38
2022-08-27T10:57:56.820Z,98376.88
2022-08-27T10:59:21.703Z,98374.06
2022-08-27T11:00:25.430Z,98373.22
2022-08-27T11:01:48.409Z,98357.41
2022-08-27T11:03:01.344Z,98368.78
2022-08-27T11:04:13.443Z,98353.94
2022-08-27T11:05:24.794Z,98360.81
2022-08-27T11:06:43.158Z,98371.22
2022-08-27T11:08:02.114Z,98364.78
2022-08-27T11:09:10.598Z,98353.00
2022-08-27T11:10:29.398Z,98367.00
2022-08-27T11:13:13.619Z,98365.16
2022-08-27T11:14:25.387Z,98366.41
2022-08-27T11:15:29.107Z,98360.69
2022-08-27T11:16:45.423Z,98362.66
2022-08-27T11:17:59.851Z,98361.38
2022-08-27T11:19:14.097Z,98365.44
2022-08-27T11:20:25.188Z,98360.13
2022-08-27T11:22:03.025Z,98352.22
2022-08-27T11:23:34.273Z,98355.28
2022-08-27T11:24:55.665Z,98360.69
2022-08-27T11:26:01.591Z,98358.81
2022-08-27T11:27:08.191Z,98357.91
2022-08-27T11:28:11.929Z,98346.38
2022-08-27T11:29:25.002Z,98360.50
2022-08-27T11:30:30.228Z,98358.56
2022-08-27T11:31:38.538Z,98353.50
2022-08-27T11:32:46.630Z,98351.44
2022-08-27T11:34:13.615Z,98347.34
2022-08-27T11:35:46.893Z,98345.53
2022-08-27T11:37:06.034Z,98344.63
2022-08-27T11:38:38.526Z,98351.19
2022-08-27T11:39:56.781Z,98345.25
2022-08-27T11:41:17.123Z,98346.25
2022-08-27T11:42:36.318Z,98350.94
2022-08-27T11:43:38.369Z,98344.28
2022-08-27T11:44:44.841Z,98329.47
2022-08-27T11:46:01.852Z,98336.41
2022-08-27T11:47:24.624Z,98342.13
2022-08-27T11:48:36.190Z,98343.88
2022-08-27T11:49:49.083Z,98339.13
2022-08-27T11:51:26.093Z,98333.47
2022-08-27T11:52:38.643Z,98327.91
2022-08-27T11:53:57.489Z,98318.69
2022-08-27T11:55:25.115Z,98334.03
2022-08-27T11:56:29.906Z,98327.59
2022-08-27T11:57:34.678Z,98315.84
2022-08-27T11:58:53.361Z,98328.91
2022-08-27T11:59:55.532Z,98324.41
2022-08-27T12:01:03.746Z,98332.50
2022-08-27T12:02:22.974Z,98330.47
2022-08-27T12:03:32.607Z,98329.41
2022-08-27T12:04:41.407Z,98327.25
2022-08-27T12:05:49.207Z,98321.84
2022-08-27T12:07:00.364Z,98331.19
2022-08-27T12:08:22.080Z,98322.81
2022-08-27T12:09:24.549Z,98326.63
2022-08-27T12:10:40.554Z,98322.66
2022-08-27T12:11:56.910Z,98317.50
2022-08-27T12:13:42.011Z,98322.00
2022-08-27T12:14:53.709Z,98325.59
2022-08-27T12:16:00.294Z,98321.56
2022-08-27T12:17:14.083Z,98327.84
2022-08-27T12:18:27.868Z,98320.56
2022-08-27T12:20:06.180Z,98327.84
2022-08-27T12:21:20.046Z,98323.19
2022-08-27T12:23:01.345Z,98324.03
2022-08-27T12:24:21.085Z,98321.25
2022-08-27T12:25:23.866Z,98304.72
2022-08-27T12:26:25.615Z,98312.88
2022-08-27T12:27:34.967Z,98314.84
2022-08-27T12:28:36.823Z,98320.66
2022-08-27T12:29:57.178Z,98315.03
2022-08-27T12:30:59.166Z,98322.25
2022-08-27T12:32:10.542Z,98318.50
2022-08-27T12:33:23.703Z,98298.59
2022-08-27T12:34:26.976Z,98310.81
2022-08-27T12:35:45.804Z,98311.97
2022-08-27T12:36:53.417Z,98313.56
2022-08-27T12:38:10.637Z,98307.66
2022-08-27T12:39:16.767Z,98310.03
2022-08-27T12:40:25.903Z,98310.03
2022-08-27T12:41:44.059Z,98294.34
2022-08-27T12:42:46.753Z,98304.50
2022-08-27T12:43:48.557Z,98312.69
2022-08-27T12:44:58.200Z,98304.41
2022-08-27T12:46:19.730Z,98302.16
2022-08-27T12:47:21.773Z,98304.63
2022-08-27T12:48:34.298Z,98299.16
2022-08-27T12:49:59.496Z,98307.09
2022-08-27T12:51:07.141Z,98308.25
2022-08-27T12:52:38.207Z,98301.13
2022-08-27T12:53:43.308Z,98302.31
2022-08-27T12:54:54.049Z,98306.22
2022-08-27T12:56:27.929Z,98308.59
2022-08-27T12:57:54.144Z,98299.97
2022-08-27T12:59:06.125Z,98296.41
2022-08-27T13:00:19.302Z,98296.38
2022-08-27T13:01:36.816Z,98299.53
2022-08-27T13:03:18.631Z,98291.31
2022-08-27T13:04:30.644Z,98291.28
2022-08-27T13:05:48.192Z,98287.72
2022-08-27T13:06:50.894Z,98286.13
2022-08-27T13:07:55.519Z,98293.97